createdAt,value
2022-12-03T00:01:12.817Z,2.68
2022-12-03T00:03:41.072Z,2.75
2022-12-03T00:06:08.551Z,2.78
2022-12-03T00:08:39.081Z,2.80
2022-12-03T00:11:09.249Z,2.62
2022-12-03T00:13:42.142Z,2.64
2022-12-03T00:16:12.203Z,2.77
2022-12-03T00:18:46.119Z,2.84
2022-12-03T00:21:16.166Z,2.64
2022-12-03T00:23:43.807Z,2.64
2022-12-03T00:26:19.602Z,2.75
2022-12-03T00:28:52.976Z,2.87
2022-12-03T00:31:23.753Z,3.00
2022-12-03T00:33:54.563Z,2.97
2022-12-03T00:36:25.206Z,2.95
2022-12-03T00:38:55.561Z,2.88
2022-12-03T00:41:25.634Z,2.93
2022-12-03T00:43:56.615Z,3.02
2022-12-03T00:46:27.558Z,2.96
2022-12-03T00:48:55.163Z,2.93
2022-12-03T00:51:28.211Z,2.93
2022-12-03T00:53:58.425Z,2.87
2022-12-03T00:56:28.446Z,2.94
2022-12-03T00:58:58.832Z,3.06
2022-12-03T01:01:26.272Z,3.06
2022-12-03T01:03:59.468Z,2.91
2022-12-03T01:06:29.389Z,3.10
2022-12-03T01:08:56.594Z,2.97
2022-12-03T01:11:23.837Z,2.99
2022-12-03T01:13:54.827Z,3.02
2022-12-03T01:16:27.321Z,3.12
2022-12-03T01:18:54.555Z,3.08
2022-12-03T01:21:24.626Z,3.12
2022-12-03T01:23:52.046Z,2.87
2022-12-03T01:26:23.268Z,3.14
2022-12-03T01:28:53.296Z,3.08
2022-12-03T01:31:23.206Z,3.08
2022-12-03T01:33:54.301Z,2.87
2022-12-03T01:36:21.586Z,2.97
2022-12-03T01:38:48.903Z,3.12
2022-12-03T01:41:23.656Z,3.06
2022-12-03T01:43:53.297Z,2.96
2022-12-03T01:46:25.430Z,2.99
2022-12-03T01:48:55.939Z,2.90
2022-12-03T01:51:25.951Z,2.79
2022-12-03T01:53:57.816Z,2.81
2022-12-03T01:56:28.054Z,2.93
2022-12-03T01:58:59.138Z,3.00
2022-12-03T02:01:27.285Z,3.04
2022-12-03T02:03:54.573Z,2.72
2022-12-03T02:06:23.985Z,2.97
2022-12-03T02:08:54.984Z,2.88
2022-12-03T02:11:28.032Z,2.90
2022-12-03T02:14:10.752Z,2.93
2022-12-03T02:16:43.050Z,3.05
2022-12-03T02:19:29.273Z,2.97
2022-12-03T02:22:19.639Z,3.03
2022-12-03T02:25:21.073Z,3.16
2022-12-03T02:27:55.662Z,2.98
2022-12-03T02:30:25.224Z,2.99
2022-12-03T02:32:54.083Z,3.16
2022-12-03T02:35:24.052Z,3.03
2022-12-03T02:38:19.332Z,3.01
2022-12-03T02:41:03.743Z,2.97
2022-12-03T02:43:41.159Z,3.09
2022-12-03T02:46:17.676Z,2.91
2022-12-03T02:48:54.424Z,2.97
2022-12-03T02:51:32.201Z,2.94
2022-12-03T02:54:09.269Z,2.76
2022-12-03T02:56:42.981Z,3.03
2022-12-03T02:59:24.672Z,2.75
2022-12-03T03:01:58.557Z,2.74
2022-12-03T03:04:31.765Z,2.96
2022-12-03T03:07:02.736Z,2.89
2022-12-03T03:09:30.315Z,2.95
2022-12-03T03:12:00.197Z,2.98
2022-12-03T03:14:32.745Z,2.97
2022-12-03T03:17:10.417Z,3.01
2022-12-03T03:19:46.992Z,3.06
2022-12-03T03:22:24.273Z,2.99
2022-12-03T03:25:01.517Z,3.04
2022-12-03T03:27:41.470Z,2.92
2022-12-03T03:30:13.234Z,2.99
2022-12-03T03:32:52.560Z,2.94
2022-12-03T03:35:30.092Z,2.83
2022-12-03T03:38:00.861Z,2.96
2022-12-03T03:40:34.818Z,3.01
2022-12-03T03:43:05.924Z,2.87
2022-12-03T03:45:37.807Z,2.83
2022-12-03T03:48:12.247Z,2.86
2022-12-03T03:50:41.793Z,2.95
2022-12-03T03:53:15.541Z,2.85
2022-12-03T03:55:49.329Z,2.93
2022-12-03T03:58:22.417Z,2.85
2022-12-03T04:00:53.438Z,2.94
2022-12-03T04:03:27.397Z,2.96
2022-12-03T04:06:00.209Z,2.96
2022-12-03T04:08:36.689Z,3.01
2022-12-03T04:11:13.287Z,2.86
2022-12-03T04:13:46.863Z,2.89
2022-12-03T04:16:21.276Z,2.81
2022-12-03T04:18:57.258Z,2.87
2022-12-03T04:21:37.780Z,2.94
2022-12-03T04:24:09.211Z,2.81
2022-12-03T04:26:42.310Z,2.72
2022-12-03T04:29:20.385Z,2.76
2022-12-03T04:31:54.854Z,2.56
2022-12-03T04:34:31.894Z,2.54
2022-12-03T04:37:00.208Z,2.64
2022-12-03T04:39:39.216Z,2.71
2022-12-03T04:42:16.484Z,2.89
2022-12-03T04:44:49.558Z,3.11
2022-12-03T04:47:27.173Z,3.14
2022-12-03T04:50:04.569Z,3.08
2022-12-03T04:52:43.418Z,3.09
2022-12-03T04:55:22.971Z,3.12
2022-12-03T04:57:54.170Z,3.11
2022-12-03T05:00:27.613Z,2.88
2022-12-03T05:02:59.343Z,2.80
2022-12-03T05:05:32.455Z,2.83
2022-12-03T05:08:06.835Z,2.89
2022-12-03T05:11:03.197Z,2.73
2022-12-03T05:13:40.174Z,2.73
2022-12-03T05:16:12.347Z,2.88
2022-12-03T05:18:45.527Z,2.91
2022-12-03T05:21:16.172Z,2.70
2022-12-03T05:23:50.515Z,2.78
2022-12-03T05:26:26.966Z,2.63
2022-12-03T05:29:04.127Z,2.99
2022-12-03T05:31:41.667Z,2.79
2022-12-03T05:34:18.600Z,2.62
2022-12-03T05:36:55.297Z,2.69
2022-12-03T05:39:34.426Z,2.66
2022-12-03T05:42:05.029Z,2.63
2022-12-03T05:44:39.199Z,2.66
2022-12-03T05:47:12.612Z,2.77
2022-12-03T05:49:49.059Z,2.86
2022-12-03T05:52:21.830Z,2.72
2022-12-03T05:55:04.425Z,2.79
2022-12-03T05:57:39.081Z,2.96
2022-12-03T06:00:15.806Z,3.08
2022-12-03T06:02:48.917Z,2.88
2022-12-03T06:05:23.163Z,2.97
2022-12-03T06:07:57.249Z,3.01
2022-12-03T06:10:32.203Z,2.91
2022-12-03T06:13:11.237Z,2.80
2022-12-03T06:15:48.859Z,2.89
2022-12-03T06:18:23.472Z,3.91
2022-12-03T06:21:00.123Z,7.63
2022-12-03T06:23:36.271Z,4.72
2022-12-03T06:26:13.502Z,3.93
2022-12-03T06:28:49.707Z,3.39
2022-12-03T06:31:28.183Z,3.01
2022-12-03T06:33:59.321Z,2.96
2022-12-03T06:36:34.143Z,2.89
2022-12-03T06:39:07.906Z,3.06
2022-12-03T06:41:37.505Z,3.24
2022-12-03T06:44:12.775Z,3.26
2022-12-03T06:46:46.960Z,3.23
2022-12-03T06:49:21.501Z,3.13
2022-12-03T06:51:53.152Z,5.91
2022-12-03T06:54:32.491Z,5.90
2022-12-03T06:57:04.148Z,4.54
2022-12-03T06:59:40.054Z,3.97
2022-12-03T07:02:13.812Z,3.79
2022-12-03T07:04:53.175Z,3.52
2022-12-03T07:07:26.676Z,3.44
2022-12-03T07:09:54.234Z,3.40
2022-12-03T07:12:24.722Z,3.33
2022-12-03T07:14:59.708Z,3.53
2022-12-03T07:17:30.494Z,3.26
2022-12-03T07:20:09.242Z,3.13
2022-12-03T07:22:45.049Z,3.06
2022-12-03T07:25:23.919Z,3.15
2022-12-03T07:27:55.752Z,3.06
2022-12-03T07:30:28.926Z,3.05
2022-12-03T07:33:03.357Z,3.13
2022-12-03T07:35:34.426Z,3.13
2022-12-03T07:38:09.757Z,3.11
2022-12-03T07:40:46.416Z,3.11
2022-12-03T07:43:17.965Z,3.14
2022-12-03T07:45:45.031Z,3.13
2022-12-03T07:48:18.447Z,3.20
2022-12-03T07:50:48.322Z,3.05
2022-12-03T07:53:19.068Z,2.87
2022-12-03T07:55:49.835Z,3.10
2022-12-03T07:58:22.384Z,2.82
2022-12-03T08:00:52.251Z,2.96
2022-12-03T08:03:24.094Z,2.91
2022-12-03T08:05:57.675Z,3.12
2022-12-03T08:08:25.322Z,3.20
2022-12-03T08:10:55.636Z,3.17
2022-12-03T08:13:28.448Z,3.15
2022-12-03T08:15:59.010Z,3.22
2022-12-03T08:18:29.721Z,3.17
2022-12-03T08:21:02.892Z,3.32
2022-12-03T08:23:34.563Z,3.28
2022-12-03T08:26:17.510Z,3.24
2022-12-03T08:28:48.168Z,3.40
2022-12-03T08:31:30.838Z,3.37
2022-12-03T08:34:40.132Z,4.95
2022-12-03T08:37:18.381Z,7.08
2022-12-03T08:39:54.919Z,5.49
2022-12-03T08:42:26.577Z,4.68
2022-12-03T08:45:00.180Z,3.83
2022-12-03T08:47:33.398Z,3.73
2022-12-03T08:50:20.178Z,4.74
2022-12-03T08:52:53.144Z,3.95
2022-12-03T08:55:38.145Z,3.53
2022-12-03T08:58:28.256Z,6.06
2022-12-03T09:01:05.854Z,7.55
2022-12-03T09:03:39.672Z,6.58
2022-12-03T09:06:10.155Z,4.63
2022-12-03T09:08:44.670Z,4.15
2022-12-03T09:11:18.131Z,3.64
2022-12-03T09:13:46.307Z,3.52
2022-12-03T09:16:21.884Z,3.50
2022-12-03T09:18:55.503Z,3.62
2022-12-03T09:21:25.744Z,3.42
2022-12-03T09:24:02.239Z,4.17
2022-12-03T09:26:33.735Z,6.86
2022-12-03T09:29:12.291Z,6.33
2022-12-03T09:31:41.244Z,6.28
2022-12-03T09:34:14.413Z,4.49
2022-12-03T09:36:52.735Z,4.00
2022-12-03T09:39:20.107Z,3.84
2022-12-03T09:41:51.383Z,3.75
2022-12-03T09:44:29.413Z,3.37
2022-12-03T09:47:04.093Z,3.50
2022-12-03T09:49:38.906Z,3.61
2022-12-03T09:52:13.431Z,3.70
2022-12-03T09:54:46.853Z,3.50
2022-12-03T09:57:21.299Z,3.54
2022-12-03T09:59:52.733Z,3.61
2022-12-03T10:02:27.778Z,3.36
2022-12-03T10:04:55.976Z,3.57
2022-12-03T10:07:30.209Z,3.69
2022-12-03T10:09:58.155Z,3.64
2022-12-03T10:12:31.302Z,3.51
2022-12-03T10:15:01.808Z,5.44
2022-12-03T10:17:35.895Z,5.11
2022-12-03T10:20:04.509Z,4.56
2022-12-03T10:22:34.860Z,4.02
2022-12-03T10:25:12.638Z,3.83
2022-12-03T10:27:41.271Z,3.64
2022-12-03T10:30:19.115Z,3.60
2022-12-03T10:32:49.607Z,3.50
2022-12-03T10:35:21.303Z,3.48
2022-12-03T10:37:57.261Z,3.68
2022-12-03T10:40:30.044Z,3.66
2022-12-03T10:43:32.974Z,3.49
2022-12-03T10:46:04.465Z,3.38
2022-12-03T10:48:37.911Z,3.43
2022-12-03T10:51:27.760Z,3.49
2022-12-03T10:53:58.071Z,3.49
2022-12-03T10:56:28.800Z,3.47
2022-12-03T10:58:59.275Z,3.53
2022-12-03T11:01:30.635Z,3.52
2022-12-03T11:04:05.370Z,3.30
2022-12-03T11:06:33.304Z,3.36
2022-12-03T11:09:06.955Z,3.53
2022-12-03T11:11:38.728Z,6.07
2022-12-03T11:14:15.756Z,6.36
2022-12-03T11:16:52.832Z,4.79
2022-12-03T11:19:40.123Z,4.69
2022-12-03T11:22:17.564Z,4.20
2022-12-03T11:25:23.095Z,3.85
2022-12-03T11:28:09.102Z,3.88
2022-12-03T11:30:51.868Z,3.88
2022-12-03T11:33:33.888Z,3.67
2022-12-03T11:36:04.871Z,3.52
2022-12-03T11:38:38.203Z,3.54
2022-12-03T11:41:18.848Z,3.44
2022-12-03T11:43:52.198Z,3.52
2022-12-03T11:46:36.044Z,3.52
2022-12-03T11:49:35.686Z,3.58
2022-12-03T11:52:20.938Z,3.47
2022-12-03T11:55:18.210Z,3.24
2022-12-03T11:58:01.153Z,3.37
2022-12-03T12:00:34.978Z,3.46
2022-12-03T12:03:05.650Z,3.28
2022-12-03T12:05:36.058Z,3.46
2022-12-03T12:08:23.427Z,3.46
2022-12-03T12:10:51.770Z,3.47
2022-12-03T12:13:48.926Z,3.27
2022-12-03T12:16:39.544Z,3.40
2022-12-03T12:19:30.494Z,3.67
2022-12-03T12:22:13.026Z,3.69
2022-12-03T12:24:47.478Z,3.39
2022-12-03T12:27:31.931Z,3.54
2022-12-03T12:30:13.635Z,3.55
2022-12-03T12:32:46.141Z,3.53
2022-12-03T12:35:23.476Z,3.54
2022-12-03T12:37:59.103Z,3.53
2022-12-03T12:40:31.706Z,3.59
2022-12-03T12:43:14.218Z,3.51
2022-12-03T12:45:44.373Z,3.57
2022-12-03T12:48:14.483Z,3.76
2022-12-03T12:50:47.237Z,3.57
2022-12-03T12:53:33.908Z,3.55
2022-12-03T12:56:31.674Z,3.43
2022-12-03T12:59:12.916Z,3.64
2022-12-03T13:01:41.303Z,3.53
2022-12-03T13:04:15.167Z,3.59
2022-12-03T13:06:46.656Z,3.57
2022-12-03T13:09:21.566Z,3.71
2022-12-03T13:11:55.719Z,3.46
2022-12-03T13:14:31.280Z,3.42
2022-12-03T13:17:01.671Z,3.44
2022-12-03T13:19:48.258Z,3.65
2022-12-03T13:22:25.185Z,3.57
2022-12-03T13:24:56.003Z,3.30
2022-12-03T13:27:29.368Z,3.31
2022-12-03T13:30:07.745Z,3.55
2022-12-03T13:32:42.040Z,3.49
2022-12-03T13:35:30.871Z,3.46
2022-12-03T13:38:13.603Z,3.51
2022-12-03T13:40:45.860Z,3.57
2022-12-03T13:43:18.713Z,3.50
2022-12-03T13:45:52.600Z,3.33
2022-12-03T13:48:29.076Z,3.61
2022-12-03T13:51:01.370Z,3.48
2022-12-03T13:53:40.934Z,3.38
2022-12-03T13:56:20.572Z,3.35
2022-12-03T13:58:50.914Z,3.52
2022-12-03T14:01:18.214Z,3.48
2022-12-03T14:03:47.083Z,3.37
2022-12-03T14:06:21.003Z,3.36
2022-12-03T14:08:51.245Z,3.49
2022-12-03T14:11:18.516Z,3.32
2022-12-03T14:14:00.250Z,3.34
2022-12-03T14:16:42.569Z,3.50
2022-12-03T14:19:13.072Z,3.56
2022-12-03T14:21:47.389Z,3.60
2022-12-03T14:24:15.257Z,3.53
2022-12-03T14:26:48.840Z,3.55
2022-12-03T14:29:22.086Z,3.65
2022-12-03T14:31:58.957Z,3.61
2022-12-03T14:34:29.322Z,3.64
2022-12-03T14:37:02.175Z,3.67
2022-12-03T14:39:33.200Z,3.66
2022-12-03T14:42:03.769Z,3.70
2022-12-03T14:44:34.723Z,3.44
2022-12-03T14:47:05.446Z,3.39
2022-12-03T14:49:35.758Z,3.38
2022-12-03T14:52:12.203Z,3.44
2022-12-03T14:54:44.062Z,3.59
2022-12-03T14:57:21.777Z,3.66
2022-12-03T14:59:51.787Z,3.60
2022-12-03T15:02:24.960Z,3.54
2022-12-03T15:04:57.895Z,3.45
2022-12-03T15:07:28.924Z,3.37
2022-12-03T15:10:00.022Z,3.41
2022-12-03T15:12:32.468Z,3.69
2022-12-03T15:15:03.024Z,3.79
2022-12-03T15:17:33.728Z,3.88
2022-12-03T15:20:04.600Z,3.73
2022-12-03T15:22:32.237Z,3.83
2022-12-03T15:25:06.148Z,3.78
2022-12-03T15:27:37.477Z,3.60
2022-12-03T15:30:11.685Z,3.67
2022-12-03T15:32:45.133Z,3.70
2022-12-03T15:35:15.120Z,3.67
2022-12-03T15:37:43.087Z,3.58
2022-12-03T15:40:14.622Z,3.60
2022-12-03T15:42:45.377Z,3.56
2022-12-03T15:45:17.237Z,3.69
2022-12-03T15:47:47.767Z,3.70
2022-12-03T15:50:15.813Z,3.66
2022-12-03T15:52:46.761Z,3.58
2022-12-03T15:55:19.811Z,3.59
2022-12-03T15:57:53.461Z,3.37
2022-12-03T16:00:21.021Z,3.23
2022-12-03T16:02:53.134Z,3.54
2022-12-03T16:05:24.161Z,3.58
2022-12-03T16:07:54.780Z,3.44
2022-12-03T16:10:25.611Z,3.40
2022-12-03T16:12:53.688Z,3.52
2022-12-03T16:15:27.313Z,3.64
2022-12-03T16:18:00.952Z,3.35
2022-12-03T16:20:31.152Z,3.39
2022-12-03T16:23:00.302Z,3.47
2022-12-03T16:25:33.980Z,3.59
2022-12-03T16:28:10.839Z,3.38
2022-12-03T16:30:38.650Z,3.52
2022-12-03T16:33:12.252Z,3.53
2022-12-03T16:35:39.395Z,3.56
2022-12-03T16:38:07.097Z,3.55
2022-12-03T16:40:34.300Z,3.55
2022-12-03T16:43:05.707Z,3.45
2022-12-03T16:45:39.823Z,3.56
2022-12-03T16:48:10.077Z,3.51
2022-12-03T16:50:41.078Z,3.33
2022-12-03T16:53:11.576Z,3.46
2022-12-03T16:55:44.621Z,3.42
2022-12-03T16:58:17.289Z,3.40
2022-12-03T17:00:44.880Z,3.47
2022-12-03T17:03:24.922Z,3.45
2022-12-03T17:05:59.558Z,3.55
2022-12-03T17:08:29.055Z,3.48
2022-12-03T17:11:00.128Z,3.45
2022-12-03T17:13:31.065Z,3.57
2022-12-03T17:16:02.751Z,3.41
2022-12-03T17:18:30.205Z,3.34
2022-12-03T17:21:06.641Z,3.53
2022-12-03T17:23:36.370Z,3.58
2022-12-03T17:26:07.497Z,3.54
2022-12-03T17:28:34.757Z,3.50
2022-12-03T17:31:12.035Z,3.45
2022-12-03T17:33:42.775Z,3.52
2022-12-03T17:36:10.779Z,3.63
2022-12-03T17:38:43.728Z,3.46
2022-12-03T17:41:11.387Z,3.34
2022-12-03T17:43:47.942Z,3.43
2022-12-03T17:46:16.002Z,3.60
2022-12-03T17:48:53.104Z,3.46
2022-12-03T17:51:27.724Z,3.39
2022-12-03T17:53:59.035Z,3.56
2022-12-03T17:56:31.634Z,3.43
2022-12-03T17:59:02.700Z,3.52
2022-12-03T18:01:30.509Z,3.60
2022-12-03T18:04:08.058Z,3.86
2022-12-03T18:06:39.125Z,3.78
2022-12-03T18:09:09.619Z,3.54
2022-12-03T18:11:42.716Z,3.36
2022-12-03T18:14:19.874Z,3.45
2022-12-03T18:16:52.368Z,3.51
2022-12-03T18:19:32.266Z,3.48
2022-12-03T18:22:06.068Z,3.44
2022-12-03T18:24:47.542Z,3.71
2022-12-03T18:27:20.694Z,3.56
2022-12-03T18:29:55.438Z,3.59
2022-12-03T18:32:32.209Z,3.62
2022-12-03T18:35:06.319Z,3.59
2022-12-03T18:37:40.425Z,3.43
2022-12-03T18:40:30.846Z,3.31
2022-12-03T18:43:11.902Z,3.50
2022-12-03T18:45:56.911Z,3.58
2022-12-03T18:48:30.942Z,3.48
2022-12-03T18:51:02.297Z,3.39
2022-12-03T18:53:39.820Z,3.52
2022-12-03T18:56:15.916Z,3.55
2022-12-03T18:58:53.807Z,3.45
2022-12-03T19:01:26.819Z,3.52
2022-12-03T19:04:01.147Z,3.60
2022-12-03T19:06:38.522Z,3.66
2022-12-03T19:09:12.179Z,3.54
2022-12-03T19:11:48.724Z,3.50
2022-12-03T19:14:20.295Z,3.45
2022-12-03T19:17:00.880Z,3.36
2022-12-03T19:19:35.088Z,3.38
2022-12-03T19:22:15.197Z,3.33
2022-12-03T19:24:48.809Z,3.44
2022-12-03T19:27:28.974Z,3.52
2022-12-03T19:30:01.077Z,3.51
2022-12-03T19:32:35.605Z,3.57
2022-12-03T19:35:14.949Z,3.62
2022-12-03T19:40:32.982Z,3.55
2022-12-03T19:43:02.918Z,3.73
2022-12-03T19:45:41.553Z,3.60
2022-12-03T19:48:15.522Z,3.62
2022-12-03T19:51:07.825Z,3.29
2022-12-03T19:53:43.899Z,3.50
2022-12-03T19:56:24.407Z,3.57
2022-12-03T19:58:59.151Z,3.71
2022-12-03T20:01:36.654Z,3.51
2022-12-03T20:04:07.618Z,3.74
2022-12-03T20:06:39.077Z,3.70
2022-12-03T20:09:16.063Z,3.56
2022-12-03T20:11:52.233Z,3.39
2022-12-03T20:14:25.739Z,3.69
2022-12-03T20:16:53.064Z,3.71
2022-12-03T20:19:24.005Z,3.54
2022-12-03T20:21:56.262Z,3.45
2022-12-03T20:24:34.917Z,3.55
2022-12-03T20:27:10.962Z,3.66
2022-12-03T20:29:49.355Z,3.57
2022-12-03T20:32:23.219Z,3.44
2022-12-03T20:34:54.257Z,3.54
2022-12-03T20:37:31.195Z,3.62
2022-12-03T20:40:11.180Z,3.38
2022-12-03T20:42:48.051Z,3.34
2022-12-03T20:45:21.219Z,3.49
2022-12-03T20:47:51.594Z,3.58
2022-12-03T20:50:25.507Z,3.30
2022-12-03T20:53:23.098Z,3.46
2022-12-03T20:56:00.755Z,3.56
2022-12-03T20:58:35.619Z,3.70
2022-12-03T21:01:27.495Z,3.31
2022-12-03T21:04:06.862Z,3.52
2022-12-03T21:06:46.339Z,3.40
2022-12-03T21:09:24.219Z,3.48
2022-12-03T21:11:57.204Z,3.44
2022-12-03T21:14:32.838Z,3.41
2022-12-03T21:17:12.280Z,3.36
2022-12-03T21:19:47.896Z,3.43
2022-12-03T21:22:26.696Z,3.36
2022-12-03T21:24:59.866Z,3.37
2022-12-03T21:27:40.507Z,3.51
2022-12-03T21:30:17.846Z,3.30
2022-12-03T21:32:48.191Z,3.23
2022-12-03T21:35:25.021Z,3.29
2022-12-03T21:38:04.867Z,3.40
2022-12-03T21:40:36.369Z,3.27
2022-12-03T21:43:08.019Z,3.28
2022-12-03T21:45:42.258Z,3.34
2022-12-03T21:48:13.812Z,3.37
2022-12-03T21:50:45.324Z,3.42
2022-12-03T21:53:16.130Z,3.29
2022-12-03T21:55:52.994Z,3.28
2022-12-03T21:58:27.995Z,3.26
2022-12-03T22:01:05.353Z,3.33
2022-12-03T22:03:34.323Z,3.19
2022-12-03T22:06:09.798Z,3.35
2022-12-03T22:08:43.231Z,3.27
2022-12-03T22:11:25.738Z,3.26
2022-12-03T22:13:59.874Z,3.16
2022-12-03T22:16:35.117Z,3.34
2022-12-03T22:19:08.835Z,3.41
2022-12-03T22:21:41.727Z,3.17
2022-12-03T22:24:13.809Z,3.17
2022-12-03T22:26:47.241Z,3.26
2022-12-03T22:29:23.958Z,3.11
2022-12-03T22:31:57.691Z,3.09
2022-12-03T22:34:31.207Z,2.98
2022-12-03T22:37:08.787Z,3.22
2022-12-03T22:39:39.148Z,3.26
2022-12-03T22:42:12.811Z,3.14
2022-12-03T22:44:54.050Z,3.15
2022-12-03T22:47:29.151Z,3.20
2022-12-03T22:50:03.447Z,3.24
2022-12-03T22:52:37.152Z,2.92
2022-12-03T22:55:25.487Z,3.02
2022-12-03T22:58:02.796Z,3.14
2022-12-03T23:00:44.616Z,3.14
2022-12-03T23:03:18.694Z,3.16
2022-12-03T23:05:56.651Z,3.26
2022-12-03T23:08:43.191Z,3.32
2022-12-03T23:11:17.840Z,3.16
2022-12-03T23:13:49.708Z,2.98
2022-12-03T23:16:25.668Z,3.22
2022-12-03T23:18:57.243Z,3.24
2022-12-03T23:21:34.314Z,3.06
2022-12-03T23:24:11.611Z,3.04
2022-12-03T23:26:54.359Z,3.20
2022-12-03T23:29:26.173Z,3.21
2022-12-03T23:31:59.903Z,3.01
2022-12-03T23:34:31.622Z,2.98
2022-12-03T23:37:01.681Z,3.06
2022-12-03T23:39:38.603Z,3.15
2022-12-03T23:42:14.465Z,3.01
2022-12-03T23:44:48.087Z,2.87
2022-12-03T23:47:21.640Z,3.09
2022-12-03T23:49:53.191Z,2.99
2022-12-03T23:52:26.646Z,2.98
2022-12-03T23:54:58.990Z,2.88
2022-12-03T23:57:29.958Z,3.00
